Terminal Aerodrome Forecast
Issued by NWS

Home | Current Version | Previous Version | Text Only | Print | Product List | Glossary On
Versions: 1 2 3 4 5 6 7 8 9 10 11 12 13 14 15 16 17 18 19 20 21 22 23 24
637
FTUS41 KBUF 290539
TAFJHW
TAF
KJHW 290539Z 2906/3006 19010KT 6SM -SHRA VCTS OVC007CB
     FM291100 23009KT P6SM VCSH OVC007
     FM291300 24010KT P6SM VCSH BKN035
     FM291500 26012G18KT P6SM SCT250
     FM292100 26010KT P6SM SCT250
     FM300300 19006KT P6SM VCSH BKN070
      AMD LTD TO CLD VIS AND WIND=

USA.gov is the U.S. government's official web portal to all federal, state and local government web resources and services.